Time;durP1;ratioP1;P1;durP2;ratioP2;P2;SDS_P1;SDS_P2;PMS_P1;PMS_P2;Temp;Humidity;BMP_temperature;BMP_pressure;BME280_temperature;BME280_humidity;BME280_pressure;Samples;Min_cycle;Max_cycle;Signal;HPM_P1;HPM_P2
2022/01/13 05:06:42;;;;;;;;;29.67;28.67;;;;;;;;6474140;39;9053;-51
2022/01/13 05:12:47;;;;;;;;;44.67;35.33;;;;;;;;6494409;31;8911;-52
2022/01/13 05:18:56;;;;;;;;;44.67;36.33;;;;;;;;6493475;31;8883;-55
2022/01/13 05:24:59;;;;;;;;;38.67;27.67;;;;;;;;6495285;39;8867;-53
2022/01/13 05:31:02;;;;;;;;;45.67;37.00;;;;;;;;6493708;39;8864;-51
2022/01/13 05:37:07;;;;;;;;;48.00;40.33;;;;;;;;6493865;46;8892;-52
2022/01/13 05:43:09;;;;;;;;;41.33;36.00;;;;;;;;6494389;39;8908;-50
2022/01/13 05:49:12;;;;;;;;;49.67;42.33;;;;;;;;6493339;31;8871;-49
2022/01/13 05:55:16;;;;;;;;;54.33;46.00;;;;;;;;6495065;39;8863;-53
2022/01/13 06:01:18;;;;;;;;;54.33;43.00;;;;;;;;6492668;31;8915;-55
2022/01/13 06:07:20;;;;;;;;;39.33;38.00;;;;;;;;6492992;39;9047;-51
2022/01/13 06:13:22;;;;;;;;;62.33;49.00;;;;;;;;6491522;39;8865;-51
2022/01/13 06:19:26;;;;;;;;;55.00;48.00;;;;;;;;6491567;46;8884;-53
2022/01/13 06:25:28;;;;;;;;;52.33;46.67;;;;;;;;6492417;39;9539;-51
2022/01/13 06:31:30;;;;;;;;;77.00;55.00;;;;;;;;6492310;39;8860;-55
2022/01/13 06:37:33;;;;;;;;;65.33;51.67;;;;;;;;6493053;39;9036;-51
2022/01/13 06:43:36;;;;;;;;;63.33;52.00;;;;;;;;6491773;46;9091;-53
2022/01/13 06:49:42;;;;;;;;;58.67;48.00;;;;;;;;6491474;46;8896;-50
2022/01/13 06:55:44;;;;;;;;;64.00;52.00;;;;;;;;6492597;31;8888;-53
2022/01/13 07:01:48;;;;;;;;;49.33;45.33;;;;;;;;6491655;39;9562;-50
2022/01/13 07:07:50;;;;;;;;;63.33;51.67;;;;;;;;6492474;46;8912;-56
2022/01/13 07:13:53;;;;;;;;;60.00;48.67;;;;;;;;6491760;39;8938;-52
2022/01/13 07:19:55;;;;;;;;;66.00;48.33;;;;;;;;6491472;39;8878;-55
2022/01/13 07:25:57;;;;;;;;;71.67;57.33;;;;;;;;6491284;47;8898;-51
2022/01/13 07:31:59;;;;;;;;;70.67;58.00;;;;;;;;6490471;46;8925;-50
2022/01/13 07:38:02;;;;;;;;;62.00;49.67;;;;;;;;6491766;47;8855;-53
2022/01/13 07:44:05;;;;;;;;;61.67;47.33;;;;;;;;6490891;39;8862;-50
2022/01/13 07:50:11;;;;;;;;;56.67;50.33;;;;;;;;6490227;31;8883;-49
2022/01/13 07:56:13;;;;;;;;;57.00;44.00;;;;;;;;6491709;46;8850;-52
2022/01/13 08:02:18;;;;;;;;;41.67;40.33;;;;;;;;6490522;39;8938;-53
2022/01/13 08:08:21;;;;;;;;;58.00;45.00;;;;;;;;6492591;46;8869;-50
2022/01/13 08:14:23;;;;;;;;;70.00;52.00;;;;;;;;6492725;46;8882;-50
2022/01/13 08:20:25;;;;;;;;;66.00;52.00;;;;;;;;6492508;39;10030;-54
2022/01/13 08:26:27;;;;;;;;;67.00;48.33;;;;;;;;6493849;39;8906;-51
2022/01/13 08:32:31;;;;;;;;;52.33;47.00;;;;;;;;6493261;31;8870;-49
2022/01/13 08:38:35;;;;;;;;;62.00;48.67;;;;;;;;6493073;39;8862;-49
2022/01/13 08:44:37;;;;;;;;;42.67;37.67;;;;;;;;6493241;39;8901;-52
2022/01/13 08:50:40;;;;;;;;;65.33;51.00;;;;;;;;6491930;39;8874;-55
2022/01/13 08:56:42;;;;;;;;;57.33;51.00;;;;;;;;6493551;39;8874;-54
2022/01/13 09:02:45;;;;;;;;;66.67;51.00;;;;;;;;6492300;39;8978;-53
2022/01/13 09:08:48;;;;;;;;;59.33;46.67;;;;;;;;6493350;39;8862;-53
2022/01/13 09:14:57;;;;;;;;;63.25;51.50;;;;;;;;6492668;31;8874;-52
2022/01/13 09:21:01;;;;;;;;;59.75;50.50;;;;;;;;6492020;39;9485;-53
2022/01/13 09:27:03;;;;;;;;;63.25;50.25;;;;;;;;6492455;46;9050;-55
2022/01/13 09:33:07;;;;;;;;;62.50;50.00;;;;;;;;6492182;39;9596;-55
2022/01/13 09:39:10;;;;;;;;;66.33;52.00;;;;;;;;6492045;39;8854;-54
2022/01/13 09:45:14;;;;;;;;;57.33;47.00;;;;;;;;6492901;39;8902;-55
2022/01/13 09:51:16;;;;;;;;;60.00;46.00;;;;;;;;6491619;39;8882;-53
2022/01/13 09:57:20;;;;;;;;;43.33;33.67;;;;;;;;6492051;46;8846;-54
2022/01/13 10:03:26;;;;;;;;;41.33;35.33;;;;;;;;6491730;39;8976;-51
2022/01/13 10:09:52;;;;;;;;;55.33;47.67;;;;;;;;6492336;39;8866;-52
2022/01/13 10:22:19;;;;;;;;;61.00;47.67;;;;;;;;6491806;39;8925;-52
2022/01/13 10:28:23;;;;;;;;;42.00;42.00;;;;;;;;6492023;39;8953;-55
2022/01/13 10:34:29;;;;;;;;;40.67;36.00;;;;;;;;6491075;31;8878;-56
2022/01/13 10:40:38;;;;;;;;;41.00;36.25;;;;;;;;6492346;39;8822;-53
2022/01/13 10:47:02;;;;;;;;;36.00;29.00;;;;;;;;6491476;39;8977;-54
2022/01/13 10:53:09;;;;;;;;;51.33;37.67;;;;;;;;6491300;46;8833;-53
2022/01/13 10:59:32;;;;;;;;;36.33;34.67;;;;;;;;6491080;39;8882;-54
2022/01/13 11:05:41;;;;;;;;;45.67;40.00;;;;;;;;6490892;39;8974;-52
2022/01/13 11:11:45;;;;;;;;;44.00;39.00;;;;;;;;6491112;39;8886;-55
2022/01/13 11:17:49;;;;;;;;;43.33;39.33;;;;;;;;6491027;39;8893;-54
2022/01/13 11:23:53;;;;;;;;;40.33;30.33;;;;;;;;6490667;39;8831;-54
2022/01/13 11:30:00;;;;;;;;;37.67;33.67;;;;;;;;6490484;31;8862;-54
2022/01/13 11:36:04;;;;;;;;;44.75;41.75;;;;;;;;6490326;46;8838;-53
2022/01/13 11:42:08;;;;;;;;;39.75;34.75;;;;;;;;6490757;39;8878;-52
2022/01/13 11:48:25;;;;;;;;;37.50;35.00;;;;;;;;6489967;31;8922;-49
2022/01/13 11:54:36;;;;;;;;;28.00;27.00;;;;;;;;6491376;39;8822;-56
2022/01/13 12:01:17;;;;;;;;;43.33;34.67;;;;;;;;6489891;39;8847;-53
2022/01/13 12:07:39;;;;;;;;;32.33;28.00;;;;;;;;6492190;39;8954;-57
2022/01/13 12:13:46;;;;;;;;;40.33;36.33;;;;;;;;6490016;46;8909;-54
2022/01/13 12:20:00;;;;;;;;;33.00;26.67;;;;;;;;6489962;39;9002;-52
2022/01/13 12:26:32;;;;;;;;;24.50;21.25;;;;;;;;6489436;39;8858;-55
2022/01/13 12:32:37;;;;;;;;;37.00;30.00;;;;;;;;6491010;31;8986;-55
2022/01/13 12:38:57;;;;;;;;;36.67;27.33;;;;;;;;6492690;31;8886;-55
2022/01/13 12:51:25;;;;;;;;;36.33;34.67;;;;;;;;6492570;31;8922;-54
2022/01/13 12:57:27;;;;;;;;;38.33;30.67;;;;;;;;6491138;31;8894;-53
2022/01/13 13:03:29;;;;;;;;;42.00;37.00;;;;;;;;6492909;39;8969;-53
2022/01/13 13:09:32;;;;;;;;;37.67;27.67;;;;;;;;6491393;46;8882;-55
2022/01/13 13:21:37;;;;;;;;;35.67;33.00;;;;;;;;6493022;31;8854;-53
2022/01/13 13:27:40;;;;;;;;;45.00;36.67;;;;;;;;6490725;39;8898;-53
2022/01/13 13:33:56;;;;;;;;;34.00;29.67;;;;;;;;6492199;46;8835;-52
2022/01/13 13:39:59;;;;;;;;;29.33;21.33;;;;;;;;6492518;39;9537;-51
2022/01/13 13:46:03;;;;;;;;;22.67;21.00;;;;;;;;6492330;39;8992;-51
2022/01/13 13:52:09;;;;;;;;;39.33;33.00;;;;;;;;6492225;39;8895;-53
2022/01/13 13:58:19;;;;;;;;;31.67;28.33;;;;;;;;6492164;31;8890;-52
2022/01/13 14:04:39;;;;;;;;;33.33;28.33;;;;;;;;6492701;39;8962;-56
2022/01/13 14:10:44;;;;;;;;;39.67;34.67;;;;;;;;6492291;39;9018;-52
2022/01/13 14:16:51;;;;;;;;;45.33;42.33;;;;;;;;6492848;39;8825;-53
2022/01/13 14:22:58;;;;;;;;;50.00;42.00;;;;;;;;6491713;46;8882;-52
2022/01/13 14:29:00;;;;;;;;;40.00;32.67;;;;;;;;6492361;39;9471;-52
2022/01/13 14:35:02;;;;;;;;;47.67;36.67;;;;;;;;6492422;46;8882;-56
2022/01/13 14:41:07;;;;;;;;;42.33;38.33;;;;;;;;6491979;39;8866;-56
2022/01/13 14:47:09;;;;;;;;;25.00;21.33;;;;;;;;6492253;46;8843;-53
2022/01/13 14:53:12;;;;;;;;;44.33;37.67;;;;;;;;6491568;31;9029;-51
2022/01/13 14:59:14;;;;;;;;;54.33;45.67;;;;;;;;6490927;39;9541;-53
2022/01/13 15:05:18;;;;;;;;;62.00;43.33;;;;;;;;6492658;46;8958;-54
2022/01/13 15:11:20;;;;;;;;;49.67;46.00;;;;;;;;6491433;46;8870;-50
2022/01/13 15:17:22;;;;;;;;;46.00;41.33;;;;;;;;6491860;46;8890;-50
2022/01/13 15:23:27;;;;;;;;;53.33;45.00;;;;;;;;6491823;39;8908;-50
2022/01/13 15:29:29;;;;;;;;;51.67;42.00;;;;;;;;6491336;39;8862;-53
2022/01/13 15:35:32;;;;;;;;;78.75;55.25;;;;;;;;6491427;39;8937;-53
2022/01/13 15:41:35;;;;;;;;;51.00;46.67;;;;;;;;6491530;39;8936;-50
2022/01/13 15:47:40;;;;;;;;;61.33;52.00;;;;;;;;6491416;47;8964;-52
2022/01/13 15:53:44;;;;;;;;;47.33;41.33;;;;;;;;6491139;39;8862;-53
2022/01/13 15:59:46;;;;;;;;;47.67;38.33;;;;;;;;6491196;39;8890;-51
2022/01/13 16:05:48;;;;;;;;;45.67;42.00;;;;;;;;6491872;39;9600;-53
2022/01/13 16:11:52;;;;;;;;;44.67;39.00;;;;;;;;6490541;46;8958;-52
2022/01/13 16:17:54;;;;;;;;;50.33;36.67;;;;;;;;6493899;39;8871;-51
2022/01/13 16:23:56;;;;;;;;;66.67;48.33;;;;;;;;6493434;39;9600;-56
2022/01/13 16:30:06;;;;;;;;;50.67;43.33;;;;;;;;6492936;31;9566;-53
2022/01/13 16:36:08;;;;;;;;;51.00;45.00;;;;;;;;6493540;39;8892;-50
2022/01/13 16:42:11;;;;;;;;;52.00;45.00;;;;;;;;6493305;39;8928;-55
2022/01/13 16:48:21;;;;;;;;;50.33;41.33;;;;;;;;6494405;39;8917;-53
2022/01/13 16:54:23;;;;;;;;;37.00;32.67;;;;;;;;6492927;46;8920;-54
2022/01/13 17:00:27;;;;;;;;;55.33;45.33;;;;;;;;6493069;39;8945;-49
2022/01/13 17:06:30;;;;;;;;;50.67;42.33;;;;;;;;6494517;39;9635;-50
2022/01/13 17:12:33;;;;;;;;;56.33;45.00;;;;;;;;6493091;39;9494;-54
2022/01/13 17:18:35;;;;;;;;;51.67;44.33;;;;;;;;6493460;39;8842;-55
2022/01/13 17:24:39;;;;;;;;;60.67;47.33;;;;;;;;6492612;39;8942;-51
2022/01/13 17:30:42;;;;;;;;;48.33;45.00;;;;;;;;6492818;39;9577;-50
2022/01/13 17:36:45;;;;;;;;;58.25;48.75;;;;;;;;6492701;46;8863;-52
2022/01/13 17:42:48;;;;;;;;;52.50;44.25;;;;;;;;6492560;31;8905;-52
2022/01/13 17:48:50;;;;;;;;;30.67;24.33;;;;;;;;6493342;31;8909;-51
2022/01/13 17:54:53;;;;;;;;;66.25;51.00;;;;;;;;6493182;39;8874;-56
2022/01/13 18:00:55;;;;;;;;;53.50;39.75;;;;;;;;6492250;46;8858;-52
2022/01/13 18:06:59;;;;;;;;;56.50;48.50;;;;;;;;6493541;39;8965;-51
2022/01/13 18:13:11;;;;;;;;;31.00;30.00;;;;;;;;5403901;36;10010980;-52
